Time;durP1;ratioP1;P1;durP2;ratioP2;P2;SDS_P1;SDS_P2;PMS_P1;PMS_P2;Temp;Humidity;BMP_temperature;BMP_pressure;BME280_temperature;BME280_humidity;BME280_pressure;Samples;Min_cycle;Max_cycle;Signal;HPM_P1;HPM_P2
2022/07/29 00:01:35;;;;;;;0.00;0.00;;;;;;;12.70;82.60;98420.09;5095519;28;20056;-63
2022/07/29 00:04:03;;;;;;;0.00;0.00;;;;;;;12.75;81.89;98426.75;5097093;28;20050;-63
2022/07/29 00:06:35;;;;;;;0.00;0.00;;;;;;;12.80;82.16;98426.44;5096436;28;20097;-63
2022/07/29 00:09:05;;;;;;;0.00;0.00;;;;;;;12.83;81.32;98428.88;5096015;28;20051;-63
2022/07/29 00:11:36;;;;;;;0.00;0.00;;;;;;;12.92;80.67;98423.81;5095250;28;20060;-62
2022/07/29 00:14:06;;;;;;;0.00;0.00;;;;;;;12.95;80.54;98420.97;5096143;28;20052;-63
2022/07/29 00:16:33;;;;;;;0.00;0.00;;;;;;;12.96;80.45;98433.22;5095179;28;20071;-63
2022/07/29 00:19:04;;;;;;;0.00;0.00;;;;;;;12.96;79.85;98427.94;5095776;28;20090;-64
2022/07/29 00:21:31;;;;;;;0.00;0.00;;;;;;;12.86;80.57;98434.81;5095980;28;20043;-63
2022/07/29 00:24:00;;;;;;;0.00;0.00;;;;;;;12.79;81.54;98432.69;5095744;28;20036;-63
2022/07/29 00:26:31;;;;;;;0.00;0.00;;;;;;;12.86;80.66;98432.19;5096106;28;20060;-63
2022/07/29 00:28:59;;;;;;;0.00;0.00;;;;;;;12.90;80.17;98431.03;5095771;28;20424;-62
2022/07/29 00:31:27;;;;;;;0.00;0.00;;;;;;;12.89;80.34;98439.88;5095969;28;20036;-63
2022/07/29 00:33:54;;;;;;;0.00;0.00;;;;;;;12.90;80.18;98427.53;5095845;28;20050;-63
2022/07/29 00:36:23;;;;;;;0.00;0.00;;;;;;;12.89;80.13;98426.66;5095783;28;20431;-63
2022/07/29 00:38:52;;;;;;;0.00;0.00;;;;;;;12.84;80.71;98434.06;5096001;28;20500;-63
2022/07/29 00:41:21;;;;;;;0.00;0.00;;;;;;;12.81;81.46;98434.25;5095670;28;20115;-64
2022/07/29 00:43:48;;;;;;;0.00;0.00;;;;;;;12.83;80.96;98420.94;5094853;28;20542;-64
2022/07/29 00:46:16;;;;;;;0.00;0.00;;;;;;;12.82;81.53;98417.47;5095242;28;20427;-62
2022/07/29 00:48:43;;;;;;;0.00;0.00;;;;;;;12.79;81.48;98425.63;5096371;28;20040;-64
2022/07/29 00:51:11;;;;;;;0.00;0.00;;;;;;;12.77;81.78;98431.91;5097131;28;20052;-64
2022/07/29 00:53:39;;;;;;;0.00;0.00;;;;;;;12.82;81.56;98428.03;5100529;28;20043;-64
2022/07/29 00:56:06;;;;;;;0.00;0.00;;;;;;;12.90;81.07;98419.59;5100703;28;20428;-63
2022/07/29 00:58:35;;;;;;;0.00;0.00;;;;;;;12.94;80.18;98416.66;5099963;28;20415;-63
2022/07/29 01:01:03;;;;;;;0.00;0.00;;;;;;;13.01;79.95;98417.94;5099498;28;20044;-64
2022/07/29 01:03:30;;;;;;;0.00;0.00;;;;;;;13.08;79.63;98415.75;5098624;28;20052;-64
2022/07/29 01:05:59;;;;;;;0.00;0.00;;;;;;;13.11;79.21;98407.63;5099885;28;20513;-64
2022/07/29 01:08:29;;;;;;;0.00;0.00;;;;;;;13.14;79.28;98421.44;5099623;28;20044;-63
2022/07/29 01:11:01;;;;;;;0.00;0.00;;;;;;;13.15;78.97;98407.28;5081951;28;20128;-63
2022/07/29 01:13:31;;;;;;;0.00;0.00;;;;;;;13.20;78.82;98410.47;5099387;28;20048;-63
2022/07/29 01:16:14;;;;;;;0.00;0.00;;;;;;;13.21;78.77;98416.59;5099274;28;20113;-63
2022/07/29 01:18:47;;;;;;;0.00;0.00;;;;;;;13.13;78.97;98408.34;5099182;28;20131;-64
2022/07/29 01:21:32;;;;;;;0.00;0.00;;;;;;;13.06;79.57;98417.63;5099309;28;20048;-63
2022/07/29 01:24:24;;;;;;;0.00;0.00;;;;;;;13.07;79.40;98412.25;5099210;28;20043;-62
2022/07/29 01:26:58;;;;;;;0.00;0.00;;;;;;;13.07;78.90;98412.25;5098313;28;20386;-64
2022/07/29 01:29:31;;;;;;;0.00;0.00;;;;;;;13.04;79.23;98412.41;5097956;28;20497;-64
2022/07/29 01:32:08;;;;;;;0.00;0.00;;;;;;;13.10;79.08;98406.75;5099183;28;20048;-62
2022/07/29 01:34:51;;;;;;;0.00;0.00;;;;;;;13.11;78.48;98403.16;5098960;28;20101;-63
2022/07/29 01:37:21;;;;;;;0.00;0.00;;;;;;;13.11;78.49;98405.81;5098993;28;20066;-63
2022/07/29 01:39:50;;;;;;;0.00;0.00;;;;;;;13.13;78.66;98401.28;5098768;28;20040;-62
2022/07/29 01:42:24;;;;;;;0.00;0.00;;;;;;;13.12;78.68;98409.31;5098848;28;20040;-63
2022/07/29 01:45:00;;;;;;;0.00;0.00;;;;;;;13.11;78.44;98404.97;5098842;28;20388;-62
2022/07/29 01:47:35;;;;;;;0.13;0.00;;;;;;;13.10;78.79;98404.13;5097877;28;20055;-63
2022/07/29 01:50:11;;;;;;;0.00;0.00;;;;;;;13.11;78.69;98399.69;5098959;28;20071;-64
2022/07/29 01:52:47;;;;;;;0.00;0.00;;;;;;;13.00;79.47;98405.66;5098683;28;20044;-63
2022/07/29 01:55:17;;;;;;;0.00;0.00;;;;;;;12.95;79.56;98399.84;5098665;28;20051;-63
2022/07/29 01:57:49;;;;;;;0.00;0.00;;;;;;;12.96;79.72;98406.00;5097287;28;20325;-63
2022/07/29 02:00:19;;;;;;;0.00;0.00;;;;;;;12.88;80.25;98395.06;5098416;28;20044;-62
2022/07/29 02:02:51;;;;;;;0.00;0.00;;;;;;;12.89;80.36;98394.97;5097720;28;20075;-63
2022/07/29 02:05:21;;;;;;;0.00;0.00;;;;;;;12.88;80.71;98393.28;5098400;28;20052;-62
2022/07/29 02:07:50;;;;;;;0.00;0.00;;;;;;;12.89;80.52;98389.69;5097307;28;20403;-64
2022/07/29 02:10:21;;;;;;;0.00;0.00;;;;;;;12.87;80.93;98388.97;5098065;28;20071;-63
2022/07/29 02:12:51;;;;;;;0.00;0.00;;;;;;;12.86;80.21;98395.22;5098241;28;20072;-63
2022/07/29 02:15:23;;;;;;;0.00;0.00;;;;;;;12.87;80.34;98386.31;5098123;28;20335;-64
2022/07/29 02:17:56;;;;;;;0.00;0.00;;;;;;;12.86;79.77;98389.94;5098181;28;20052;-63
2022/07/29 02:20:26;;;;;;;0.00;0.00;;;;;;;12.80;80.19;98390.31;5098125;28;20040;-64
2022/07/29 02:22:55;;;;;;;0.00;0.00;;;;;;;12.77;80.58;98389.66;5098418;28;20423;-63
2022/07/29 02:25:25;;;;;;;0.00;0.00;;;;;;;12.66;81.71;98385.13;5098010;28;20052;-63
2022/07/29 02:28:01;;;;;;;0.00;0.00;;;;;;;12.57;82.03;98385.75;5098301;28;20072;-63
2022/07/29 02:30:32;;;;;;;0.00;0.00;;;;;;;12.50;83.34;98381.81;5097819;28;20052;-64
2022/07/29 02:33:01;;;;;;;0.00;0.00;;;;;;;12.37;83.67;98383.56;5097685;28;20074;-63
2022/07/29 02:35:30;;;;;;;0.00;0.00;;;;;;;12.36;83.79;98384.53;5097760;28;20048;-63
2022/07/29 02:40:43;;;;;;;0.00;0.00;;;;;;;12.32;84.15;98375.13;5055367;28;20053;-63
2022/07/29 02:43:11;;;;;;;0.00;0.00;;;;;;;12.26;85.15;98372.03;5055477;28;20056;-64
2022/07/29 02:45:40;;;;;;;0.00;0.00;;;;;;;12.11;85.94;98376.50;5055440;28;20110;-64
2022/07/29 02:48:14;;;;;;;0.00;0.00;;;;;;;12.03;87.04;98384.06;5055992;28;20059;-63
2022/07/29 02:50:50;;;;;;;0.00;0.00;;;;;;;11.96;87.53;98380.13;5055794;28;20056;-63
2022/07/29 02:53:21;;;;;;;0.00;0.00;;;;;;;11.86;88.45;98388.72;5055938;28;20041;-63
2022/07/29 02:55:57;;;;;;;0.00;0.00;;;;;;;11.78;89.10;98386.53;5055616;28;20151;-63
2022/07/29 02:58:31;;;;;;;0.00;0.00;;;;;;;11.71;89.87;98379.97;5055471;28;20139;-64
2022/07/29 03:01:04;;;;;;;0.00;0.00;;;;;;;11.62;90.61;98383.19;5055231;28;20376;-63
2022/07/29 03:03:34;;;;;;;;;;;;;;;11.66;91.07;98387.31;5056222;28;20139;-63
2022/07/29 03:06:04;;;;;;;0.00;0.00;;;;;;;11.67;91.17;98383.75;5055486;28;19928;-63
2022/07/29 03:08:33;;;;;;;0.00;0.00;;;;;;;11.75;90.46;98385.91;5038399;28;20083;-63
2022/07/29 03:11:01;;;;;;;0.00;0.00;;;;;;;11.85;90.56;98377.31;5038015;28;20053;-63
2022/07/29 03:13:31;;;;;;;0.00;0.00;;;;;;;11.87;89.87;98383.34;5037985;28;20076;-63
2022/07/29 03:16:01;;;;;;;0.00;0.00;;;;;;;11.88;90.46;98379.75;5037609;28;20052;-63
2022/07/29 03:18:29;;;;;;;0.00;0.00;;;;;;;11.95;89.54;98370.53;5083715;28;20064;-63
2022/07/29 03:20:57;;;;;;;0.00;0.00;;;;;;;11.93;90.10;98376.88;5094391;28;20048;-63
2022/07/29 03:23:27;;;;;;;0.00;0.00;;;;;;;11.89;90.33;98378.78;5095433;28;20134;-63
2022/07/29 03:25:58;;;;;;;0.00;0.00;;;;;;;11.91;90.24;98379.56;5095765;28;20051;-63
2022/07/29 03:28:31;;;;;;;0.00;0.00;;;;;;;11.94;90.54;98365.38;5095522;28;20451;-63
2022/07/29 03:31:00;;;;;;;0.00;0.00;;;;;;;12.09;90.34;98370.50;5094365;28;20064;-63
2022/07/29 03:33:28;;;;;;;0.00;0.00;;;;;;;12.18;89.32;98372.53;5095948;28;20044;-62
2022/07/29 03:36:02;;;;;;;0.00;0.00;;;;;;;12.20;89.25;98375.06;5095800;28;20396;-63
2022/07/29 03:38:34;;;;;;;0.00;0.00;;;;;;;12.19;89.12;98390.03;5096446;28;20048;-63
2022/07/29 03:41:06;;;;;;;0.00;0.00;;;;;;;12.27;88.54;98377.22;5078416;28;20447;-64
2022/07/29 03:43:38;;;;;;;0.00;0.00;;;;;;;12.33;89.04;98386.53;5087118;28;20047;-63
2022/07/29 03:46:11;;;;;;;0.00;0.00;;;;;;;12.42;88.99;98386.78;5079095;28;20051;-64
2022/07/29 03:48:43;;;;;;;0.00;0.00;;;;;;;12.50;88.90;98387.09;5093892;28;20044;-63
2022/07/29 03:51:14;;;;;;;0.00;0.00;;;;;;;12.64;88.74;98388.81;5096340;28;20040;-63
2022/07/29 03:53:42;;;;;;;0.00;0.00;;;;;;;12.78;88.33;98386.09;5096380;28;20048;-63
2022/07/29 03:56:11;;;;;;;0.00;0.00;;;;;;;13.01;87.38;98386.25;5096258;28;20048;-63
2022/07/29 03:58:39;;;;;;;0.00;0.00;;;;;;;13.16;87.73;98387.00;5095325;28;20060;-63
2022/07/29 04:01:09;;;;;;;0.00;0.00;;;;;;;13.47;88.12;98386.53;5095355;28;20105;-63
2022/07/29 04:03:36;;;;;;;0.00;0.00;;;;;;;13.64;87.35;98394.16;5097045;28;20093;-63
2022/07/29 04:06:06;;;;;;;0.00;0.00;;;;;;;13.58;86.94;98395.44;5096458;28;20044;-64
2022/07/29 04:08:34;;;;;;;0.00;0.00;;;;;;;13.68;87.42;98392.97;5095793;28;20068;-62
2022/07/29 04:11:03;;;;;;;0.00;0.00;;;;;;;13.95;87.00;98389.19;5096533;28;20044;-63
2022/07/29 04:13:30;;;;;;;0.00;0.00;;;;;;;14.24;85.13;98385.31;5096523;28;20059;-64
2022/07/29 04:15:58;;;;;;;0.00;0.00;;;;;;;14.37;83.29;98383.47;5095124;28;20402;-62
2022/07/29 04:18:27;;;;;;;0.00;0.00;;;;;;;14.40;82.97;98382.41;5095915;28;20060;-62
2022/07/29 04:20:55;;;;;;;0.00;0.00;;;;;;;14.47;82.67;98376.53;5095879;28;20502;-63
2022/07/29 04:23:23;;;;;;;0.00;0.00;;;;;;;14.55;82.07;98375.97;5095830;28;20044;-62
2022/07/29 04:25:50;;;;;;;0.00;0.00;;;;;;;14.62;81.59;98379.00;5095501;28;20049;-64
2022/07/29 04:28:19;;;;;;;0.00;0.00;;;;;;;14.67;80.92;98379.47;5095829;28;20052;-63
2022/07/29 04:30:47;;;;;;;0.00;0.00;;;;;;;14.71;81.02;98373.00;5094707;28;20059;-63
2022/07/29 04:33:17;;;;;;;0.00;0.00;;;;;;;14.71;81.52;98378.28;5095878;28;20444;-63
2022/07/29 04:35:47;;;;;;;0.00;0.00;;;;;;;14.74;82.22;98384.22;5095845;28;20135;-62
2022/07/29 04:38:15;;;;;;;0.00;0.00;;;;;;;14.81;81.66;98384.59;5094961;28;20378;-63
2022/07/29 04:40:43;;;;;;;0.00;0.00;;;;;;;15.13;80.54;98383.03;5095700;28;20044;-63
2022/07/29 04:43:14;;;;;;;0.00;0.00;;;;;;;15.60;79.11;98386.28;5095656;28;20068;-63
2022/07/29 04:45:43;;;;;;;0.00;0.00;;;;;;;15.63;78.53;98377.25;5094885;28;20140;-63
2022/07/29 04:48:12;;;;;;;0.00;0.00;;;;;;;15.69;78.75;98379.44;5095663;28;20081;-62
2022/07/29 04:50:40;;;;;;;0.00;0.00;;;;;;;15.78;77.66;98381.38;5095334;28;20058;-63
2022/07/29 04:53:12;;;;;;;0.00;0.00;;;;;;;15.88;76.86;98383.16;5095591;28;20101;-63
2022/07/29 04:55:39;;;;;;;0.00;0.00;;;;;;;15.93;76.30;98377.50;5095593;28;20044;-62
2022/07/29 04:58:07;;;;;;;0.00;0.00;;;;;;;16.10;75.86;98379.63;5094828;28;20052;-63
2022/07/29 05:00:35;;;;;;;0.00;0.00;;;;;;;16.19;75.08;98370.94;5094542;28;20101;-63
2022/07/29 05:03:03;;;;;;;0.00;0.00;;;;;;;16.24;74.80;98364.28;5096034;28;20089;-62
2022/07/29 05:05:30;;;;;;;0.00;0.00;;;;;;;16.29;74.44;98367.41;5096254;28;20071;-62
2022/07/29 05:07:58;;;;;;;0.00;0.00;;;;;;;16.38;74.33;98365.81;5094745;28;20435;-63
2022/07/29 05:10:27;;;;;;;0.00;0.00;;;;;;;16.43;73.90;98371.56;5095379;28;20143;-62
2022/07/29 05:12:58;;;;;;;0.00;0.00;;;;;;;16.56;73.17;98364.28;5094431;28;20044;-62
2022/07/29 05:15:29;;;;;;;0.00;0.00;;;;;;;16.66;71.92;98363.38;5095381;28;20052;-62
2022/07/29 05:17:56;;;;;;;0.00;0.00;;;;;;;16.72;71.17;98357.56;5094277;28;20060;-61
2022/07/29 05:20:27;;;;;;;0.00;0.00;;;;;;;16.75;70.96;98359.13;5094379;28;20093;-63
2022/07/29 05:22:57;;;;;;;0.00;0.00;;;;;;;16.79;70.55;98348.13;5095366;28;20068;-63
2022/07/29 05:25:25;;;;;;;0.00;0.00;;;;;;;16.78;71.37;98351.72;5092349;28;20117;-61
2022/07/29 05:27:54;;;;;;;0.00;0.00;;;;;;;16.76;70.92;98355.50;5075041;28;20044;-63
2022/07/29 05:30:25;;;;;;;0.00;0.00;;;;;;;16.82;71.48;98347.00;5073851;28;20317;-63
2022/07/29 05:32:53;;;;;;;0.00;0.00;;;;;;;16.93;71.27;98342.44;5072984;28;20056;-62
2022/07/29 05:35:21;;;;;;;0.00;0.00;;;;;;;17.00;71.42;98345.50;5074951;28;20053;-63
2022/07/29 05:37:50;;;;;;;0.00;0.00;;;;;;;17.10;71.23;98346.38;5074944;28;20044;-62
2022/07/29 05:40:20;;;;;;;0.00;0.00;;;;;;;17.17;70.61;98348.38;5078351;28;20051;-62
2022/07/29 05:42:49;;;;;;;0.00;0.00;;;;;;;17.31;70.30;98349.84;5078402;28;20049;-63
2022/07/29 05:45:18;;;;;;;0.00;0.00;;;;;;;17.45;69.71;98352.16;5078806;28;20048;-62
2022/07/29 05:47:46;;;;;;;0.00;0.00;;;;;;;17.47;69.60;98347.53;5078111;28;20344;-62
2022/07/29 05:50:14;;;;;;;0.00;0.00;;;;;;;17.50;69.20;98356.09;5078923;28;20037;-62
2022/07/29 05:52:42;;;;;;;0.00;0.00;;;;;;;17.54;69.04;98349.53;5078878;28;20086;-62
2022/07/29 05:55:13;;;;;;;0.00;0.00;;;;;;;17.68;69.07;98358.97;5060767;28;20701;-62
2022/07/29 05:57:45;;;;;;;0.00;0.00;;;;;;;17.72;68.97;98367.53;5077987;28;20071;-62
2022/07/29 06:00:13;;;;;;;0.00;0.00;;;;;;;17.78;68.94;98363.34;5077427;28;20056;-62
2022/07/29 06:02:42;;;;;;;0.00;0.00;;;;;;;17.95;68.98;98358.41;5077009;28;20060;-62
2022/07/29 06:05:10;;;;;;;0.00;0.00;;;;;;;18.10;68.93;98365.88;5079378;28;20317;-62
2022/07/29 06:07:38;;;;;;;0.00;0.00;;;;;;;18.23;68.35;98358.44;5077766;28;20136;-62
2022/07/29 06:10:06;;;;;;;0.00;0.00;;;;;;;18.47;67.96;98364.25;5077882;28;20424;-62
2022/07/29 06:12:34;;;;;;;0.00;0.00;;;;;;;18.62;67.55;98361.97;5080061;28;20043;-62
2022/07/29 06:15:03;;;;;;;0.00;0.00;;;;;;;18.60;67.87;98359.47;5097118;28;20333;-61
2022/07/29 06:17:31;;;;;;;0.00;0.00;;;;;;;18.53;67.07;98357.50;5097993;28;20055;-62
2022/07/29 06:20:02;;;;;;;0.00;0.00;;;;;;;18.58;67.38;98353.44;5097169;28;20074;-63
2022/07/29 06:22:30;;;;;;;0.00;0.00;;;;;;;18.71;66.81;98359.34;5098107;28;20040;-62
2022/07/29 06:24:59;;;;;;;0.00;0.00;;;;;;;18.84;66.93;98357.25;5097297;28;20078;-63
2022/07/29 06:27:29;;;;;;;0.00;0.00;;;;;;;19.13;66.74;98352.69;5081773;28;20056;-62
2022/07/29 06:29:57;;;;;;;0.00;0.00;;;;;;;19.27;66.75;98356.75;5076581;28;20055;-61
2022/07/29 06:32:28;;;;;;;0.00;0.00;;;;;;;19.48;65.48;98352.91;5077094;28;20368;-62
2022/07/29 06:34:59;;;;;;;0.00;0.00;;;;;;;19.62;65.04;98355.09;5074702;28;20064;-62
2022/07/29 06:37:27;;;;;;;0.00;0.00;;;;;;;19.89;65.21;98356.94;5075842;28;20044;-62
2022/07/29 06:42:36;;;;;;;0.00;0.00;;;;;;;20.39;60.46;98356.38;5075509;28;20040;-63
2022/07/29 06:45:05;;;;;;;0.00;0.00;;;;;;;20.49;59.28;98346.44;5074997;28;20106;-63
2022/07/29 06:47:34;;;;;;;0.00;0.00;;;;;;;20.71;59.46;98348.66;5091154;28;20083;-63
2022/07/29 06:50:13;;;;;;;0.00;0.00;;;;;;;20.83;59.27;98340.38;5096666;28;20343;-62
2022/07/29 06:52:41;;;;;;;0.00;0.00;;;;;;;20.89;58.31;98342.44;5080237;28;20549;-62
2022/07/29 06:55:19;;;;;;;0.00;0.00;;;;;;;21.02;57.10;98334.91;5097500;28;20052;-62
2022/07/29 06:57:49;;;;;;;0.00;0.00;;;;;;;20.99;55.85;98337.91;5097913;28;20052;-63
2022/07/29 07:00:22;;;;;;;0.00;0.00;;;;;;;21.07;55.29;98333.44;5097257;28;20147;-63
2022/07/29 07:02:50;;;;;;;0.00;0.00;;;;;;;21.25;55.62;98330.72;5091876;28;20439;-62
2022/07/29 07:05:19;;;;;;;0.00;0.00;;;;;;;21.50;56.07;98341.41;5077714;28;20078;-64
2022/07/29 07:07:46;;;;;;;0.00;0.00;;;;;;;21.66;54.60;98338.00;5077797;28;20150;-63
2022/07/29 07:10:14;;;;;;;0.00;0.00;;;;;;;21.70;53.56;98328.63;5084769;28;20336;-63
2022/07/29 07:12:42;;;;;;;0.00;0.00;;;;;;;21.70;53.62;98329.50;5085083;28;20044;-63
2022/07/29 07:15:10;;;;;;;0.00;0.00;;;;;;;21.57;53.65;98338.91;5076667;28;20334;-62
2022/07/29 07:17:38;;;;;;;0.00;0.00;;;;;;;21.50;53.66;98336.03;5076692;28;20064;-63
2022/07/29 07:20:07;;;;;;;0.00;0.00;;;;;;;21.45;53.18;98340.19;5077636;28;20048;-63
2022/07/29 07:22:36;;;;;;;0.00;0.00;;;;;;;21.65;52.35;98330.97;5077784;28;20391;-62
2022/07/29 07:25:03;;;;;;;0.00;0.00;;;;;;;21.56;52.21;98330.06;5077530;28;20131;-63
2022/07/29 07:27:31;;;;;;;0.00;0.00;;;;;;;21.47;52.60;98322.97;5077573;28;20060;-63
2022/07/29 07:29:58;;;;;;;0.00;0.00;;;;;;;21.37;53.48;98334.78;5077395;28;20454;-61
2022/07/29 07:32:26;;;;;;;0.00;0.00;;;;;;;21.34;53.37;98329.75;5077588;28;20052;-63
2022/07/29 07:34:53;;;;;;;0.00;0.00;;;;;;;21.25;53.63;98334.22;5076996;28;20040;-62
2022/07/29 07:37:21;;;;;;;0.00;0.00;;;;;;;21.39;53.61;98330.13;5075833;28;20352;-62
2022/07/29 07:39:50;;;;;;;0.00;0.00;;;;;;;21.60;53.15;98327.88;5077111;28;20352;-62
2022/07/29 07:42:17;;;;;;;0.00;0.00;;;;;;;21.64;52.95;98331.94;5075612;28;20174;-62
2022/07/29 07:44:45;;;;;;;0.00;0.00;;;;;;;21.81;52.92;98325.69;5075265;28;20075;-62
2022/07/29 07:47:13;;;;;;;0.00;0.00;;;;;;;22.06;53.27;98330.13;5075334;28;20071;-62
2022/07/29 07:49:40;;;;;;;0.00;0.00;;;;;;;22.23;52.83;98327.31;5074397;28;20044;-62
2022/07/29 07:52:08;;;;;;;0.00;0.00;;;;;;;22.42;53.28;98331.59;5075415;28;20114;-61
2022/07/29 07:54:35;;;;;;;0.00;0.00;;;;;;;22.57;52.20;98320.03;5075471;28;20041;-62
2022/07/29 07:57:04;;;;;;;0.00;0.00;;;;;;;22.75;52.47;98319.84;5075530;28;20052;-62
2022/07/29 07:59:32;;;;;;;0.00;0.00;;;;;;;22.97;52.57;98327.22;5076239;28;20048;-63
2022/07/29 08:02:00;;;;;;;0.00;0.00;;;;;;;23.04;51.96;98325.59;5074620;28;20124;-62
2022/07/29 08:04:28;;;;;;;0.00;0.00;;;;;;;23.22;51.73;98321.72;5076092;28;20432;-63
2022/07/29 08:06:56;;;;;;;0.00;0.00;;;;;;;23.31;51.09;98314.50;5076268;28;20049;-62
2022/07/29 08:09:24;;;;;;;0.00;0.00;;;;;;;23.47;52.03;98315.28;5076335;28;20049;-61
2022/07/29 08:11:52;;;;;;;0.00;0.00;;;;;;;23.66;52.01;98324.81;5076824;28;20074;-62
2022/07/29 08:14:21;;;;;;;0.00;0.00;;;;;;;23.60;51.47;98310.19;5076767;28;20102;-62
2022/07/29 08:16:49;;;;;;;0.00;0.00;;;;;;;23.47;51.17;98314.44;5075941;28;20051;-63
2022/07/29 08:19:16;;;;;;;0.00;0.00;;;;;;;23.30;51.44;98315.47;5076814;28;20056;-62
2022/07/29 08:21:45;;;;;;;0.00;0.00;;;;;;;23.24;51.58;98310.81;5076323;28;20131;-61
2022/07/29 08:26:57;;;;;;;0.00;0.00;;;;;;;23.38;51.09;98308.25;5076613;28;20119;-61
2022/07/29 08:29:26;;;;;;;0.00;0.00;;;;;;;23.50;51.09;98314.09;5076490;28;20072;-62
2022/07/29 08:31:53;;;;;;;0.00;0.00;;;;;;;23.63;51.05;98314.38;5076761;28;20049;-62
2022/07/29 08:34:21;;;;;;;0.00;0.00;;;;;;;23.62;50.36;98313.56;5076747;28;20131;-62
2022/07/29 08:36:48;;;;;;;0.00;0.00;;;;;;;23.70;51.01;98311.88;5076442;28;20436;-62
2022/07/29 08:39:16;;;;;;;0.00;0.00;;;;;;;23.77;50.24;98312.88;5076157;28;20049;-62
2022/07/29 08:41:44;;;;;;;0.00;0.00;;;;;;;23.85;49.94;98308.28;5076469;28;20053;-63
2022/07/29 08:44:11;;;;;;;0.00;0.00;;;;;;;24.09;50.81;98305.47;5076495;28;20036;-62
2022/07/29 08:46:40;;;;;;;0.00;0.00;;;;;;;24.29;50.44;98308.56;5076407;28;20052;-62
2022/07/29 08:49:08;;;;;;;0.00;0.00;;;;;;;24.39;49.73;98307.34;5076991;28;20313;-62
2022/07/29 08:51:41;;;;;;;0.00;0.00;;;;;;;24.39;49.57;98293.88;5076327;28;20051;-62
2022/07/29 08:54:17;;;;;;;0.00;0.00;;;;;;;24.40;49.58;98306.31;5076484;28;20048;-62
2022/07/29 08:56:45;;;;;;;0.00;0.00;;;;;;;24.34;49.16;98303.50;5076467;28;20044;-61
2022/07/29 08:59:13;;;;;;;0.00;0.00;;;;;;;24.48;50.24;98305.44;5076438;28;20053;-62
2022/07/29 09:01:46;;;;;;;0.00;0.00;;;;;;;24.65;50.28;98291.66;5076302;28;20072;-62
2022/07/29 09:04:14;;;;;;;0.00;0.00;;;;;;;24.79;49.20;98293.56;5076675;28;20049;-62
2022/07/29 09:06:46;;;;;;;0.00;0.00;;;;;;;24.94;49.82;98299.03;5076816;28;20052;-62
2022/07/29 09:09:14;;;;;;;0.00;0.00;;;;;;;25.12;49.10;98289.59;5076740;28;20061;-62
2022/07/29 09:11:42;;;;;;;0.00;0.00;;;;;;;25.10;49.32;98288.94;5076672;28;20040;-62
2022/07/29 09:14:13;;;;;;;0.00;0.00;;;;;;;25.23;48.59;98289.16;5080531;28;20132;-63
2022/07/29 09:16:50;;;;;;;0.00;0.00;;;;;;;25.39;48.83;98280.88;5080123;28;20050;-63
2022/07/29 09:19:22;;;;;;;0.00;0.00;;;;;;;25.68;49.59;98272.81;5078893;28;20048;-62
2022/07/29 09:21:58;;;;;;;0.00;0.00;;;;;;;25.78;48.20;98268.00;5080114;28;20081;-62
2022/07/29 09:24:42;;;;;;;0.00;0.00;;;;;;;25.54;48.44;98260.19;5080140;28;20044;-62
2022/07/29 09:27:12;;;;;;;0.00;0.00;;;;;;;25.38;48.83;98279.22;5078116;28;20102;-62
2022/07/29 09:29:40;;;;;;;0.00;0.00;;;;;;;25.61;49.39;98261.13;5079644;28;20079;-63
2022/07/29 09:32:10;;;;;;;0.00;0.00;;;;;;;25.59;48.94;98276.66;5079718;28;20040;-63
2022/07/29 09:34:38;;;;;;;0.00;0.00;;;;;;;25.64;49.32;98273.38;5079730;28;20336;-62
2022/07/29 09:37:06;;;;;;;0.00;0.00;;;;;;;25.70;48.66;98272.66;5079680;28;20051;-63
2022/07/29 09:39:36;;;;;;;0.00;0.00;;;;;;;25.77;48.80;98271.69;5079448;28;20060;-62
2022/07/29 09:42:06;;;;;;;0.00;0.00;;;;;;;25.76;47.83;98271.91;5079604;28;20072;-63
2022/07/29 09:44:45;;;;;;;0.00;0.00;;;;;;;25.82;48.10;98271.13;5080465;28;20158;-63
2022/07/29 09:47:14;;;;;;;0.00;0.00;;;;;;;25.98;48.91;98273.63;5079367;28;20048;-63
2022/07/29 09:49:57;;;;;;;0.00;0.00;;;;;;;25.93;47.99;98270.66;5079727;28;20467;-62
2022/07/29 09:52:25;;;;;;;0.00;0.00;;;;;;;25.70;47.77;98278.88;5079500;28;20340;-62
2022/07/29 09:54:54;;;;;;;0.00;0.00;;;;;;;25.64;48.56;98276.06;5079024;28;20049;-62
2022/07/29 09:57:26;;;;;;;0.00;0.00;;;;;;;25.83;48.55;98270.09;5078591;28;20048;-62
2022/07/29 09:59:59;;;;;;;0.00;0.00;;;;;;;25.90;48.77;98265.63;5077711;28;20052;-62
2022/07/29 10:02:33;;;;;;;0.00;0.00;;;;;;;25.91;48.54;98257.34;5086544;28;20075;-62
2022/07/29 10:05:02;;;;;;;0.00;0.00;;;;;;;26.11;49.35;98252.19;5096159;28;20052;-62
2022/07/29 10:07:45;;;;;;;0.00;0.00;;;;;;;26.11;48.39;98247.66;5098424;28;20047;-63
2022/07/29 10:10:20;;;;;;;0.00;0.00;;;;;;;26.30;48.23;98243.50;5098605;28;20052;-62
2022/07/29 10:12:54;;;;;;;0.00;0.00;;;;;;;26.67;48.81;98242.41;5099266;28;20131;-62
2022/07/29 10:15:23;;;;;;;0.00;0.00;;;;;;;26.84;48.82;98243.81;5099243;28;20068;-62
2022/07/29 10:17:59;;;;;;;0.00;0.00;;;;;;;26.84;48.44;98230.31;5098964;28;20047;-63
2022/07/29 10:20:28;;;;;;;0.00;0.00;;;;;;;26.99;48.41;98234.59;5099259;28;20051;-63
2022/07/29 10:22:56;;;;;;;0.00;0.00;;;;;;;27.30;47.91;98237.75;5099071;28;20449;-63
2022/07/29 10:25:25;;;;;;;0.00;0.00;;;;;;;27.34;47.00;98240.91;5098458;28;20075;-61
2022/07/29 10:27:53;;;;;;;0.00;0.00;;;;;;;27.45;47.78;98230.34;5095824;28;20050;-62
2022/07/29 10:30:22;;;;;;;0.00;0.00;;;;;;;27.52;48.02;98225.00;5076090;28;20037;-62
2022/07/29 10:33:19;;;;;;;0.00;0.00;;;;;;;27.84;47.25;98229.69;5077068;28;20040;-62
2022/07/29 10:35:59;;;;;;;0.00;0.00;;;;;;;27.84;46.37;98230.53;5076459;28;20052;-63
2022/07/29 10:38:46;;;;;;;0.00;0.00;;;;;;;27.52;46.37;98233.09;5077018;28;20041;-63
2022/07/29 10:41:35;;;;;;;0.00;0.00;;;;;;;27.33;47.39;98228.44;5078159;28;20054;-62
2022/07/29 10:44:06;;;;;;;0.00;0.00;;;;;;;27.05;47.09;98230.28;5076613;28;20059;-63
2022/07/29 10:46:37;;;;;;;0.00;0.00;;;;;;;26.64;46.88;98222.03;5078414;28;20076;-63
2022/07/29 10:49:11;;;;;;;0.00;0.00;;;;;;;26.69;47.95;98225.81;5076418;28;20048;-62
2022/07/29 10:51:58;;;;;;;0.00;0.00;;;;;;;26.68;47.58;98215.22;5076537;28;20411;-63
2022/07/29 10:54:50;;;;;;;0.00;0.00;;;;;;;26.76;47.73;98216.97;5076170;28;20045;-62
2022/07/29 10:57:25;;;;;;;0.00;0.00;;;;;;;26.76;47.73;98222.38;5076325;28;20352;-62
2022/07/29 11:00:31;;;;;;;0.00;0.00;;;;;;;26.63;47.90;98229.31;5077340;28;20360;-62
2022/07/29 11:03:00;;;;;;;0.00;0.00;;;;;;;26.73;47.29;98229.00;5078385;28;20127;-62
2022/07/29 11:05:31;;;;;;;0.00;0.00;;;;;;;27.06;47.32;98223.84;5078374;28;20304;-63
2022/07/29 11:08:20;;;;;;;0.00;0.00;;;;;;;27.33;47.36;98217.63;5077559;28;20056;-62
2022/07/29 11:10:48;;;;;;;0.00;0.00;;;;;;;27.55;48.15;98224.59;5077852;28;20040;-62
2022/07/29 11:13:47;;;;;;;0.00;0.00;;;;;;;27.74;47.31;98218.44;5078135;28;20347;-62
2022/07/29 11:16:15;;;;;;;0.00;0.00;;;;;;;27.75;46.50;98209.28;5077842;28;20378;-61
2022/07/29 11:19:23;;;;;;;0.00;0.00;;;;;;;27.90;46.68;98215.41;5077874;28;20340;-62
2022/07/29 11:21:52;;;;;;;0.00;0.00;;;;;;;28.06;46.33;98205.03;4996518;28;20054;-62
2022/07/29 11:24:23;;;;;;;0.00;0.00;;;;;;;27.95;45.68;98221.03;4996393;28;20339;-62
2022/07/29 11:27:14;;;;;;;0.00;0.00;;;;;;;27.79;45.73;98221.34;4966050;28;20086;-62
2022/07/29 11:29:50;;;;;;;0.00;0.00;;;;;;;27.49;45.59;98204.59;5016064;28;20457;-62
2022/07/29 11:32:19;;;;;;;0.00;0.00;;;;;;;27.43;45.98;98204.56;5016054;28;20161;-62
2022/07/29 11:34:49;;;;;;;0.00;0.00;;;;;;;27.44;46.26;98206.25;5015578;28;20046;-64
2022/07/29 11:37:25;;;;;;;0.00;0.00;;;;;;;27.74;46.13;98203.03;5015338;28;20445;-62
2022/07/29 11:40:15;;;;;;;0.00;0.00;;;;;;;27.81;46.12;98195.78;5016225;28;20112;-62
2022/07/29 11:42:47;;;;;;;0.00;0.00;;;;;;;27.81;46.48;98194.97;5016090;28;20065;-63
2022/07/29 11:45:21;;;;;;;0.00;0.00;;;;;;;28.07;47.24;98187.75;5015130;28;20133;-62
2022/07/29 11:47:54;;;;;;;0.00;0.00;;;;;;;28.24;46.32;98183.66;5015048;28;20096;-62
2022/07/29 11:50:37;;;;;;;0.00;0.00;;;;;;;28.36;45.45;98170.34;5015789;28;20062;-63
2022/07/29 11:53:12;;;;;;;0.00;0.00;;;;;;;28.38;46.16;98174.50;5070843;28;20044;-61
2022/07/29 11:55:41;;;;;;;0.00;0.00;;;;;;;28.06;45.76;98182.56;5097503;28;20465;-63
2022/07/29 11:58:09;;;;;;;0.00;0.00;;;;;;;28.06;46.49;98175.28;5097413;28;20036;-62
2022/07/29 12:00:38;;;;;;;0.00;0.00;;;;;;;28.08;46.65;98183.19;5097060;28;20052;-63